sensor_id;sensor_type;location;lat;lon;timestamp;pressure;altitude;pressure_sealevel;temperature;humidity
78986;BME280;68384;55.750;48.746;2023-09-18T00:00:53;99858.88;;;9.02;81.64
78986;BME280;68384;55.750;48.746;2023-09-18T00:03:21;99868.84;;;8.93;81.03
78986;BME280;68384;55.750;48.746;2023-09-18T00:05:52;99863.16;;;8.81;81.64
78986;BME280;68384;55.750;48.746;2023-09-18T00:08:20;99862.00;;;8.73;82.09
78986;BME280;68384;55.750;48.746;2023-09-18T00:10:50;99856.53;;;8.66;82.46
78986;BME280;68384;55.750;48.746;2023-09-18T00:13:19;99849.50;;;8.62;82.49
78986;BME280;68384;55.750;48.746;2023-09-18T00:15:46;99856.16;;;8.57;82.52
78986;BME280;68384;55.750;48.746;2023-09-18T00:18:16;99856.09;;;8.55;82.37
78986;BME280;68384;55.750;48.746;2023-09-18T00:20:44;99862.03;;;8.52;82.39
78986;BME280;68384;55.750;48.746;2023-09-18T00:23:16;99852.47;;;8.50;82.38
78986;BME280;68384;55.750;48.746;2023-09-18T00:25:43;99845.38;;;8.46;82.50
78986;BME280;68384;55.750;48.746;2023-09-18T00:28:11;99854.84;;;8.45;82.44
78986;BME280;68384;55.750;48.746;2023-09-18T00:30:42;99842.63;;;8.41;82.54
78986;BME280;68384;55.750;48.746;2023-09-18T00:33:13;99852.88;;;8.40;82.36
78986;BME280;68384;55.750;48.746;2023-09-18T00:35:45;99847.66;;;8.38;82.67
78986;BME280;68384;55.750;48.746;2023-09-18T00:38:12;99847.53;;;8.35;82.67
78986;BME280;68384;55.750;48.746;2023-09-18T00:40:39;99849.19;;;8.33;82.78
78986;BME280;68384;55.750;48.746;2023-09-18T00:43:07;99847.50;;;8.34;82.84
78986;BME280;68384;55.750;48.746;2023-09-18T00:45:40;99844.97;;;8.35;83.24
78986;BME280;68384;55.750;48.746;2023-09-18T00:48:09;99840.72;;;8.37;83.38
78986;BME280;68384;55.750;48.746;2023-09-18T00:50:37;99851.19;;;8.40;83.26
78986;BME280;68384;55.750;48.746;2023-09-18T00:53:04;99850.28;;;8.40;83.13
78986;BME280;68384;55.750;48.746;2023-09-18T00:55:36;99845.13;;;8.40;82.39
78986;BME280;68384;55.750;48.746;2023-09-18T00:58:06;99837.16;;;8.34;82.29
78986;BME280;68384;55.750;48.746;2023-09-18T01:00:34;99840.41;;;8.30;82.46
78986;BME280;68384;55.750;48.746;2023-09-18T01:03:02;99836.00;;;8.27;82.30
78986;BME280;68384;55.750;48.746;2023-09-18T01:05:34;99837.66;;;8.25;82.14
78986;BME280;68384;55.750;48.746;2023-09-18T01:08:03;99839.31;;;8.23;82.49
78986;BME280;68384;55.750;48.746;2023-09-18T01:10:35;99839.34;;;8.25;82.19
78986;BME280;68384;55.750;48.746;2023-09-18T01:13:23;99841.25;;;8.29;81.97
78986;BME280;68384;55.750;48.746;2023-09-18T01:15:55;99835.25;;;8.30;81.72
78986;BME280;68384;55.750;48.746;2023-09-18T01:18:25;99835.25;;;8.30;81.85
78986;BME280;68384;55.750;48.746;2023-09-18T01:20:52;99836.09;;;8.29;81.62
78986;BME280;68384;55.750;48.746;2023-09-18T01:23:19;99832.66;;;8.30;81.70
78986;BME280;68384;55.750;48.746;2023-09-18T01:25:47;99831.91;;;8.32;81.62
78986;BME280;68384;55.750;48.746;2023-09-18T01:28:14;99830.25;;;8.34;81.57
78986;BME280;68384;55.750;48.746;2023-09-18T01:30:43;99816.53;;;8.35;81.31
78986;BME280;68384;55.750;48.746;2023-09-18T01:33:12;99817.47;;;8.37;81.29
78986;BME280;68384;55.750;48.746;2023-09-18T01:35:39;99815.91;;;8.41;81.38
78986;BME280;68384;55.750;48.746;2023-09-18T01:38:07;99811.75;;;8.44;81.06
78986;BME280;68384;55.750;48.746;2023-09-18T01:40:38;99811.94;;;8.49;80.97
78986;BME280;68384;55.750;48.746;2023-09-18T01:43:05;99808.53;;;8.50;80.66
78986;BME280;68384;55.750;48.746;2023-09-18T01:45:34;99803.50;;;8.53;80.62
78986;BME280;68384;55.750;48.746;2023-09-18T01:48:04;99804.34;;;8.53;80.59
78986;BME280;68384;55.750;48.746;2023-09-18T01:50:33;99805.44;;;8.59;80.23
78986;BME280;68384;55.750;48.746;2023-09-18T01:53:00;99801.25;;;8.62;80.20
78986;BME280;68384;55.750;48.746;2023-09-18T01:55:27;99798.75;;;8.64;80.03
78986;BME280;68384;55.750;48.746;2023-09-18T01:57:56;99798.78;;;8.65;79.87
78986;BME280;68384;55.750;48.746;2023-09-18T02:00:30;99805.84;;;8.69;79.71
78986;BME280;68384;55.750;48.746;2023-09-18T02:03:24;99800.72;;;8.71;79.24
78986;BME280;68384;55.750;48.746;2023-09-18T02:05:57;99792.22;;;8.73;79.33
78986;BME280;68384;55.750;48.746;2023-09-18T02:08:25;99794.88;;;8.75;78.76
78986;BME280;68384;55.750;48.746;2023-09-18T02:10:54;99798.44;;;8.78;78.86
78986;BME280;68384;55.750;48.746;2023-09-18T02:13:21;99788.06;;;8.77;78.73
78986;BME280;68384;55.750;48.746;2023-09-18T02:15:49;99791.56;;;8.79;78.73
78986;BME280;68384;55.750;48.746;2023-09-18T02:18:16;99783.00;;;8.80;78.85
78986;BME280;68384;55.750;48.746;2023-09-18T02:20:45;99792.34;;;8.76;78.58
78986;BME280;68384;55.750;48.746;2023-09-18T02:23:16;99781.88;;;8.73;78.34
78986;BME280;68384;55.750;48.746;2023-09-18T02:26:03;99790.59;;;8.75;78.27
78986;BME280;68384;55.750;48.746;2023-09-18T02:28:31;99785.44;;;8.75;78.68
78986;BME280;68384;55.750;48.746;2023-09-18T02:30:58;99781.09;;;8.76;78.40
78986;BME280;68384;55.750;48.746;2023-09-18T02:33:26;99782.94;;;8.78;78.24
78986;BME280;68384;55.750;48.746;2023-09-18T02:35:53;99785.50;;;8.78;78.40
78986;BME280;68384;55.750;48.746;2023-09-18T02:38:20;99777.84;;;8.80;78.34
78986;BME280;68384;55.750;48.746;2023-09-18T02:40:48;99782.22;;;8.82;78.45
78986;BME280;68384;55.750;48.746;2023-09-18T02:43:15;99778.88;;;8.85;78.38
78986;BME280;68384;55.750;48.746;2023-09-18T02:45:42;99778.06;;;8.86;78.08
78986;BME280;68384;55.750;48.746;2023-09-18T02:48:10;99785.06;;;8.88;78.01
78986;BME280;68384;55.750;48.746;2023-09-18T02:50:38;99775.59;;;8.89;77.86
78986;BME280;68384;55.750;48.746;2023-09-18T02:53:07;99762.13;;;8.97;77.47
78986;BME280;68384;55.750;48.746;2023-09-18T02:55:39;99769.16;;;9.01;77.64
78986;BME280;68384;55.750;48.746;2023-09-18T02:58:06;99767.63;;;9.06;77.46
78986;BME280;68384;55.750;48.746;2023-09-18T03:00:41;99764.38;;;9.12;77.09
78986;BME280;68384;55.750;48.746;2023-09-18T03:03:11;99754.22;;;9.17;76.85
78986;BME280;68384;55.750;48.746;2023-09-18T03:05:39;99760.56;;;9.25;76.46
78986;BME280;68384;55.750;48.746;2023-09-18T03:08:08;99759.88;;;9.29;76.53
78986;BME280;68384;55.750;48.746;2023-09-18T03:10:37;99758.44;;;9.37;76.13
78986;BME280;68384;55.750;48.746;2023-09-18T03:13:08;99752.47;;;9.39;75.62
78986;BME280;68384;55.750;48.746;2023-09-18T03:15:36;99747.53;;;9.45;75.68
78986;BME280;68384;55.750;48.746;2023-09-18T03:18:05;99754.56;;;9.49;75.31
78986;BME280;68384;55.750;48.746;2023-09-18T03:20:34;99747.69;;;9.50;75.08
78986;BME280;68384;55.750;48.746;2023-09-18T03:23:02;99753.06;;;9.56;75.20
78986;BME280;68384;55.750;48.746;2023-09-18T03:25:30;99740.09;;;9.54;75.06
78986;BME280;68384;55.750;48.746;2023-09-18T03:28:15;99743.81;;;9.62;75.00
78986;BME280;68384;55.750;48.746;2023-09-18T03:30:43;99743.97;;;9.67;74.98
78986;BME280;68384;55.750;48.746;2023-09-18T03:33:10;99747.47;;;9.69;74.87
78986;BME280;68384;55.750;48.746;2023-09-18T03:35:48;99748.47;;;9.73;74.75
78986;BME280;68384;55.750;48.746;2023-09-18T03:38:20;99744.19;;;9.73;74.51
78986;BME280;68384;55.750;48.746;2023-09-18T03:40:49;99737.44;;;9.78;74.81
78986;BME280;68384;55.750;48.746;2023-09-18T03:43:17;99735.75;;;9.79;74.61
78986;BME280;68384;55.750;48.746;2023-09-18T03:45:45;99735.06;;;9.84;74.50
78986;BME280;68384;55.750;48.746;2023-09-18T03:48:12;99737.84;;;9.90;74.38
78986;BME280;68384;55.750;48.746;2023-09-18T03:50:40;99731.91;;;9.93;74.38
78986;BME280;68384;55.750;48.746;2023-09-18T03:53:09;99733.84;;;10.00;73.94
78986;BME280;68384;55.750;48.746;2023-09-18T03:55:37;99730.53;;;10.04;73.72
78986;BME280;68384;55.750;48.746;2023-09-18T03:58:05;99726.53;;;10.13;73.24
78986;BME280;68384;55.750;48.746;2023-09-18T04:00:32;99730.03;;;10.15;73.04
78986;BME280;68384;55.750;48.746;2023-09-18T04:02:59;99718.84;;;10.16;72.90
78986;BME280;68384;55.750;48.746;2023-09-18T04:05:27;99726.06;;;10.26;72.65
78986;BME280;68384;55.750;48.746;2023-09-18T04:07:56;99717.59;;;10.30;72.42
78986;BME280;68384;55.750;48.746;2023-09-18T04:10:23;99721.13;;;10.34;72.31
78986;BME280;68384;55.750;48.746;2023-09-18T04:12:51;99713.63;;;10.42;72.31
78986;BME280;68384;55.750;48.746;2023-09-18T04:15:20;99713.78;;;10.48;71.91
78986;BME280;68384;55.750;48.746;2023-09-18T04:17:47;99713.09;;;10.53;72.05
78986;BME280;68384;55.750;48.746;2023-09-18T04:20:15;99714.13;;;10.58;71.78
78986;BME280;68384;55.750;48.746;2023-09-18T04:22:46;99709.97;;;10.65;71.46
78986;BME280;68384;55.750;48.746;2023-09-18T04:25:17;99711.13;;;10.73;70.85
78986;BME280;68384;55.750;48.746;2023-09-18T04:27:47;99705.34;;;10.83;70.17
78986;BME280;68384;55.750;48.746;2023-09-18T04:30:17;99704.81;;;10.93;69.61
78986;BME280;68384;55.750;48.746;2023-09-18T04:32:47;99703.22;;;10.98;68.83
78986;BME280;68384;55.750;48.746;2023-09-18T04:35:15;99697.25;;;11.02;68.65
78986;BME280;68384;55.750;48.746;2023-09-18T04:37:42;99696.72;;;11.12;68.30
78986;BME280;68384;55.750;48.746;2023-09-18T04:40:10;99695.94;;;11.16;67.92
78986;BME280;68384;55.750;48.746;2023-09-18T04:42:39;99702.22;;;11.24;67.26
78986;BME280;68384;55.750;48.746;2023-09-18T04:45:08;99696.53;;;11.37;66.77
78986;BME280;68384;55.750;48.746;2023-09-18T04:47:36;99685.38;;;11.41;66.30
78986;BME280;68384;55.750;48.746;2023-09-18T04:50:04;99694.16;;;11.46;66.41
78986;BME280;68384;55.750;48.746;2023-09-18T04:52:38;99691.81;;;11.56;66.08
78986;BME280;68384;55.750;48.746;2023-09-18T04:55:10;99690.22;;;11.61;66.10
78986;BME280;68384;55.750;48.746;2023-09-18T04:57:37;99693.94;;;11.70;65.78
78986;BME280;68384;55.750;48.746;2023-09-18T05:00:05;99699.34;;;11.79;65.54
78986;BME280;68384;55.750;48.746;2023-09-18T05:02:44;99688.28;;;11.86;65.42
78986;BME280;68384;55.750;48.746;2023-09-18T05:05:12;99692.75;;;11.93;65.11
78986;BME280;68384;55.750;48.746;2023-09-18T05:07:42;99682.69;;;12.05;64.94
78986;BME280;68384;55.750;48.746;2023-09-18T05:10:09;99679.31;;;12.08;64.66
78986;BME280;68384;55.750;48.746;2023-09-18T05:12:39;99683.72;;;12.12;64.20
78986;BME280;68384;55.750;48.746;2023-09-18T05:15:07;99682.97;;;12.18;63.97
78986;BME280;68384;55.750;48.746;2023-09-18T05:17:45;99678.69;;;12.20;63.80
78986;BME280;68384;55.750;48.746;2023-09-18T05:20:19;99673.63;;;12.26;63.62
78986;BME280;68384;55.750;48.746;2023-09-18T05:22:46;99674.75;;;12.37;63.34
78986;BME280;68384;55.750;48.746;2023-09-18T05:25:14;99668.16;;;12.52;62.93
78986;BME280;68384;55.750;48.746;2023-09-18T05:27:45;99672.75;;;12.62;62.25
78986;BME280;68384;55.750;48.746;2023-09-18T05:30:14;99670.38;;;12.75;62.02
78986;BME280;68384;55.750;48.746;2023-09-18T05:32:43;99655.63;;;12.74;61.75
78986;BME280;68384;55.750;48.746;2023-09-18T05:35:11;99657.50;;;12.81;61.27
78986;BME280;68384;55.750;48.746;2023-09-18T05:37:41;99655.88;;;12.86;61.34
78986;BME280;68384;55.750;48.746;2023-09-18T05:40:11;99653.44;;;12.93;60.70
78986;BME280;68384;55.750;48.746;2023-09-18T05:42:39;99665.84;;;13.08;60.41
78986;BME280;68384;55.750;48.746;2023-09-18T05:45:11;99649.56;;;13.18;60.36
78986;BME280;68384;55.750;48.746;2023-09-18T05:47:39;99649.72;;;13.27;60.27
78986;BME280;68384;55.750;48.746;2023-09-18T05:50:08;99646.47;;;13.36;59.88
78986;BME280;68384;55.750;48.746;2023-09-18T05:52:36;99636.09;;;13.39;59.49
78986;BME280;68384;55.750;48.746;2023-09-18T05:55:04;99647.41;;;13.41;59.51
78986;BME280;68384;55.750;48.746;2023-09-18T05:57:32;99648.41;;;13.47;59.74
78986;BME280;68384;55.750;48.746;2023-09-18T05:59:59;99637.88;;;13.41;59.30
78986;BME280;68384;55.750;48.746;2023-09-18T06:02:38;99638.59;;;13.33;59.43
78986;BME280;68384;55.750;48.746;2023-09-18T06:05:07;99641.91;;;13.25;60.00
78986;BME280;68384;55.750;48.746;2023-09-18T06:07:34;99638.28;;;13.17;60.39
78986;BME280;68384;55.750;48.746;2023-09-18T06:10:01;99639.13;;;13.15;60.67
78986;BME280;68384;55.750;48.746;2023-09-18T06:12:29;99638.13;;;13.10;60.76
78986;BME280;68384;55.750;48.746;2023-09-18T06:14:57;99633.91;;;13.15;60.73
78986;BME280;68384;55.750;48.746;2023-09-18T06:17:24;99640.72;;;13.08;61.45
78986;BME280;68384;55.750;48.746;2023-09-18T06:19:52;99633.91;;;13.15;61.60
78986;BME280;68384;55.750;48.746;2023-09-18T06:22:19;99618.31;;;13.18;61.35
78986;BME280;68384;55.750;48.746;2023-09-18T06:24:47;99629.91;;;13.32;61.12
78986;BME280;68384;55.750;48.746;2023-09-18T06:27:14;99624.56;;;13.26;60.96
78986;BME280;68384;55.750;48.746;2023-09-18T06:29:41;99629.84;;;13.31;60.88
78986;BME280;68384;55.750;48.746;2023-09-18T06:32:10;99632.41;;;13.29;60.84
78986;BME280;68384;55.750;48.746;2023-09-18T06:34:37;99620.38;;;13.33;60.83
78986;BME280;68384;55.750;48.746;2023-09-18T06:37:05;99623.09;;;13.39;60.67
78986;BME280;68384;55.750;48.746;2023-09-18T06:39:34;99619.75;;;13.47;59.94
78986;BME280;68384;55.750;48.746;2023-09-18T06:42:01;99624.06;;;13.45;59.63
78986;BME280;68384;55.750;48.746;2023-09-18T06:44:29;99622.19;;;13.38;59.58
78986;BME280;68384;55.750;48.746;2023-09-18T06:46:56;99613.44;;;13.35;60.09
78986;BME280;68384;55.750;48.746;2023-09-18T06:49:24;99613.50;;;13.36;60.09
78986;BME280;68384;55.750;48.746;2023-09-18T06:51:51;99616.84;;;13.31;60.05
78986;BME280;68384;55.750;48.746;2023-09-18T06:54:19;99609.13;;;13.34;60.14
78986;BME280;68384;55.750;48.746;2023-09-18T06:56:46;99610.13;;;13.43;59.90
78986;BME280;68384;55.750;48.746;2023-09-18T06:59:14;99604.13;;;13.47;59.84
78986;BME280;68384;55.750;48.746;2023-09-18T07:01:41;99608.59;;;13.54;59.97
78986;BME280;68384;55.750;48.746;2023-09-18T07:04:09;99613.91;;;13.60;59.33
78986;BME280;68384;55.750;48.746;2023-09-18T07:06:37;99605.25;;;13.61;59.36
78986;BME280;68384;55.750;48.746;2023-09-18T07:09:05;99606.09;;;13.62;59.60
78986;BME280;68384;55.750;48.746;2023-09-18T07:11:34;99609.69;;;13.70;59.79
78986;BME280;68384;55.750;48.746;2023-09-18T07:14:01;99609.75;;;13.71;59.57
78986;BME280;68384;55.750;48.746;2023-09-18T07:16:33;99601.97;;;13.74;59.43
78986;BME280;68384;55.750;48.746;2023-09-18T07:19:01;99606.41;;;13.80;59.67
78986;BME280;68384;55.750;48.746;2023-09-18T07:21:31;99601.25;;;13.83;59.65
78986;BME280;68384;55.750;48.746;2023-09-18T07:23:59;99594.47;;;13.94;59.44
78986;BME280;68384;55.750;48.746;2023-09-18T07:26:27;99595.47;;;14.04;59.74
78986;BME280;68384;55.750;48.746;2023-09-18T07:28:54;99598.22;;;14.14;59.67
78986;BME280;68384;55.750;48.746;2023-09-18T07:31:22;99595.75;;;14.25;59.46
78986;BME280;68384;55.750;48.746;2023-09-18T07:33:49;99590.56;;;14.26;59.35
78986;BME280;68384;55.750;48.746;2023-09-18T07:36:16;99589.78;;;14.33;59.41
78986;BME280;68384;55.750;48.746;2023-09-18T07:38:45;99588.09;;;14.38;59.30
78986;BME280;68384;55.750;48.746;2023-09-18T07:41:12;99587.47;;;14.53;59.28
78986;BME280;68384;55.750;48.746;2023-09-18T07:43:42;99577.09;;;14.58;58.85
78986;BME280;68384;55.750;48.746;2023-09-18T07:46:09;99567.59;;;14.64;59.34
78986;BME280;68384;55.750;48.746;2023-09-18T07:48:37;99573.81;;;14.75;58.46
78986;BME280;68384;55.750;48.746;2023-09-18T07:51:04;99571.28;;;14.81;58.47
78986;BME280;68384;55.750;48.746;2023-09-18T07:53:32;99572.22;;;14.88;58.37
78986;BME280;68384;55.750;48.746;2023-09-18T07:55:59;99567.97;;;14.97;57.93
78986;BME280;68384;55.750;48.746;2023-09-18T07:58:32;99563.63;;;14.99;57.84
78986;BME280;68384;55.750;48.746;2023-09-18T08:01:00;99558.41;;;14.98;57.69
78986;BME280;68384;55.750;48.746;2023-09-18T08:03:27;99561.88;;;14.97;57.40
78986;BME280;68384;55.750;48.746;2023-09-18T08:05:55;99559.22;;;14.92;58.39
78986;BME280;68384;55.750;48.746;2023-09-18T08:08:24;99554.06;;;15.00;58.44
78986;BME280;68384;55.750;48.746;2023-09-18T08:10:52;99552.38;;;15.07;57.58
78986;BME280;68384;55.750;48.746;2023-09-18T08:13:20;99557.72;;;15.17;57.87
78986;BME280;68384;55.750;48.746;2023-09-18T08:15:47;99542.97;;;15.24;57.23
78986;BME280;68384;55.750;48.746;2023-09-18T08:18:14;99536.94;;;15.29;57.71
78986;BME280;68384;55.750;48.746;2023-09-18T08:20:45;99534.34;;;15.34;57.18
78986;BME280;68384;55.750;48.746;2023-09-18T08:23:12;99536.19;;;15.44;56.90
78986;BME280;68384;55.750;48.746;2023-09-18T08:25:40;99527.50;;;15.48;56.62
78986;BME280;68384;55.750;48.746;2023-09-18T08:28:07;99531.09;;;15.59;56.54
78986;BME280;68384;55.750;48.746;2023-09-18T08:30:36;99516.34;;;15.66;55.90
78986;BME280;68384;55.750;48.746;2023-09-18T08:33:04;99526.88;;;15.75;55.12
78986;BME280;68384;55.750;48.746;2023-09-18T08:35:32;99512.94;;;15.74;54.22
78986;BME280;68384;55.750;48.746;2023-09-18T08:38:00;99508.56;;;15.78;54.45
78986;BME280;68384;55.750;48.746;2023-09-18T08:40:27;99510.34;;;15.83;53.34
78986;BME280;68384;55.750;48.746;2023-09-18T08:42:55;99514.72;;;15.86;52.54
78986;BME280;68384;55.750;48.746;2023-09-18T08:45:31;99504.31;;;15.95;52.01
78986;BME280;68384;55.750;48.746;2023-09-18T08:48:02;99497.41;;;16.06;51.74
78986;BME280;68384;55.750;48.746;2023-09-18T08:50:30;99492.19;;;16.10;50.29
78986;BME280;68384;55.750;48.746;2023-09-18T08:52:59;99506.19;;;16.20;49.15
78986;BME280;68384;55.750;48.746;2023-09-18T08:55:27;99500.94;;;16.18;49.03
78986;BME280;68384;55.750;48.746;2023-09-18T08:57:55;99493.09;;;16.18;47.86
78986;BME280;68384;55.750;48.746;2023-09-18T09:00:26;99495.72;;;16.25;47.96
78986;BME280;68384;55.750;48.746;2023-09-18T09:02:53;99494.94;;;16.35;49.01
78986;BME280;68384;55.750;48.746;2023-09-18T09:05:22;99495.78;;;16.38;48.65
78986;BME280;68384;55.750;48.746;2023-09-18T09:07:50;99491.41;;;16.33;46.15
78986;BME280;68384;55.750;48.746;2023-09-18T09:10:18;99490.56;;;16.40;46.38
78986;BME280;68384;55.750;48.746;2023-09-18T09:12:56;99497.56;;;16.45;45.38
78986;BME280;68384;55.750;48.746;2023-09-18T09:15:45;99476.63;;;16.42;45.41
78986;BME280;68384;55.750;48.746;2023-09-18T09:18:17;99487.97;;;16.49;45.20
78986;BME280;68384;55.750;48.746;2023-09-18T09:20:55;99488.84;;;16.42;43.97
78986;BME280;68384;55.750;48.746;2023-09-18T09:23:29;99483.59;;;16.46;43.14
78986;BME280;68384;55.750;48.746;2023-09-18T09:26:12;99486.25;;;16.48;44.05
78986;BME280;68384;55.750;48.746;2023-09-18T09:28:43;99484.50;;;16.48;43.03
78986;BME280;68384;55.750;48.746;2023-09-18T09:31:11;99490.66;;;16.53;43.83
78986;BME280;68384;55.750;48.746;2023-09-18T09:33:50;99477.56;;;16.55;43.42
78986;BME280;68384;55.750;48.746;2023-09-18T09:36:21;99473.19;;;16.57;44.10
78986;BME280;68384;55.750;48.746;2023-09-18T09:38:54;99482.81;;;16.68;43.97
78986;BME280;68384;55.750;48.746;2023-09-18T09:41:24;99474.13;;;16.72;43.96
78986;BME280;68384;55.750;48.746;2023-09-18T09:43:55;99454.88;;;16.57;43.78
78986;BME280;68384;55.750;48.746;2023-09-18T09:46:24;99475.84;;;16.69;43.89
78986;BME280;68384;55.750;48.746;2023-09-18T09:49:01;99467.13;;;16.77;44.72
78986;BME280;68384;55.750;48.746;2023-09-18T09:51:29;99475.88;;;16.93;45.34
78986;BME280;68384;55.750;48.746;2023-09-18T09:53:57;99470.66;;;17.02;44.89
78986;BME280;68384;55.750;48.746;2023-09-18T09:56:49;99471.53;;;17.27;44.82
78986;BME280;68384;55.750;48.746;2023-09-18T09:59:21;99470.66;;;17.48;44.95
78986;BME280;68384;55.750;48.746;2023-09-18T10:01:49;99468.88;;;17.71;44.62
78986;BME280;68384;55.750;48.746;2023-09-18T10:04:19;99462.69;;;17.88;44.10
78986;BME280;68384;55.750;48.746;2023-09-18T10:06:58;99472.31;;;17.88;44.05
78986;BME280;68384;55.750;48.746;2023-09-18T10:09:34;99461.00;;;17.69;44.06
78986;BME280;68384;55.750;48.746;2023-09-18T10:12:04;99471.50;;;17.65;44.90
78986;BME280;68384;55.750;48.746;2023-09-18T10:14:35;99473.22;;;17.72;44.43
78986;BME280;68384;55.750;48.746;2023-09-18T10:17:24;99460.09;;;17.78;44.31
78986;BME280;68384;55.750;48.746;2023-09-18T10:22:39;99460.09;;;17.87;43.83
78986;BME280;68384;55.750;48.746;2023-09-18T10:27:51;99443.47;;;17.83;43.77
78986;BME280;68384;55.750;48.746;2023-09-18T10:33:44;99437.41;;;17.74;43.41
78986;BME280;68384;55.750;48.746;2023-09-18T10:39:38;99419.03;;;17.75;43.93
78986;BME280;68384;55.750;48.746;2023-09-18T10:42:24;99443.41;;;18.00;44.35
78986;BME280;68384;55.750;48.746;2023-09-18T10:44:52;99439.84;;;18.19;44.28
78986;BME280;68384;55.750;48.746;2023-09-18T10:47:52;99441.47;;;18.49;43.61
78986;BME280;68384;55.750;48.746;2023-09-18T10:53:56;99450.09;;;18.69;42.81
78986;BME280;68384;55.750;48.746;2023-09-18T10:56:25;99454.63;;;18.44;43.83
78986;BME280;68384;55.750;48.746;2023-09-18T10:58:59;99440.56;;;18.48;43.86
78986;BME280;68384;55.750;48.746;2023-09-18T11:01:29;99439.66;;;18.57;43.98
78986;BME280;68384;55.750;48.746;2023-09-18T11:03:59;99459.59;;;18.85;43.67
78986;BME280;68384;55.750;48.746;2023-09-18T11:06:29;99441.19;;;18.90;43.89
78986;BME280;68384;55.750;48.746;2023-09-18T11:09:07;99438.31;;;19.17;41.90
78986;BME280;68384;55.750;48.746;2023-09-18T11:11:36;99438.28;;;19.23;42.30
78986;BME280;68384;55.750;48.746;2023-09-18T11:14:10;99429.56;;;19.18;42.64
78986;BME280;68384;55.750;48.746;2023-09-18T11:16:39;99427.78;;;19.20;42.61
78986;BME280;68384;55.750;48.746;2023-09-18T11:19:11;99415.50;;;19.22;42.93
78986;BME280;68384;55.750;48.746;2023-09-18T11:21:41;99411.94;;;19.32;42.53
78986;BME280;68384;55.750;48.746;2023-09-18T11:24:16;99411.16;;;19.17;42.33
78986;BME280;68384;55.750;48.746;2023-09-18T11:26:47;99417.31;;;19.19;41.32
78986;BME280;68384;55.750;48.746;2023-09-18T11:29:16;99405.31;;;18.87;41.43
78986;BME280;68384;55.750;48.746;2023-09-18T11:31:51;99400.75;;;19.06;41.04
78986;BME280;68384;55.750;48.746;2023-09-18T11:34:29;99393.59;;;19.25;40.55
78986;BME280;68384;55.750;48.746;2023-09-18T11:37:20;99402.34;;;19.22;40.97
78986;BME280;68384;55.750;48.746;2023-09-18T11:39:47;99406.97;;;18.96;41.74
78986;BME280;68384;55.750;48.746;2023-09-18T11:42:19;99392.16;;;18.87;41.63
78986;BME280;68384;55.750;48.746;2023-09-18T11:44:50;99395.63;;;18.94;41.91
78986;BME280;68384;55.750;48.746;2023-09-18T11:47:19;99396.44;;;19.00;41.87
78986;BME280;68384;55.750;48.746;2023-09-18T11:49:55;99385.94;;;18.99;42.03
78986;BME280;68384;55.750;48.746;2023-09-18T11:52:34;99369.53;;;18.74;42.19
78986;BME280;68384;55.750;48.746;2023-09-18T11:55:06;99394.88;;;18.80;43.05
78986;BME280;68384;55.750;48.746;2023-09-18T11:57:37;99386.97;;;18.78;42.73
78986;BME280;68384;55.750;48.746;2023-09-18T12:00:18;99376.59;;;18.65;42.91
78986;BME280;68384;55.750;48.746;2023-09-18T12:02:49;99398.44;;;18.70;42.78
78986;BME280;68384;55.750;48.746;2023-09-18T12:05:17;99390.53;;;18.73;42.94
78986;BME280;68384;55.750;48.746;2023-09-18T12:07:55;99370.50;;;18.60;42.44
78986;BME280;68384;55.750;48.746;2023-09-18T12:10:23;99392.38;;;18.63;42.72
78986;BME280;68384;55.750;48.746;2023-09-18T12:12:50;99392.38;;;18.63;42.91
78986;BME280;68384;55.750;48.746;2023-09-18T12:15:18;99378.38;;;18.64;43.00
78986;BME280;68384;55.750;48.746;2023-09-18T12:17:54;99353.84;;;18.64;43.03
78986;BME280;68384;55.750;48.746;2023-09-18T12:20:25;99364.25;;;18.76;42.50
78986;BME280;68384;55.750;48.746;2023-09-18T12:22:55;99367.69;;;18.85;42.65
78986;BME280;68384;55.750;48.746;2023-09-18T12:25:25;99357.25;;;18.76;42.96
78986;BME280;68384;55.750;48.746;2023-09-18T12:28:06;99357.16;;;18.85;43.09
78986;BME280;68384;55.750;48.746;2023-09-18T12:30:34;99366.81;;;18.82;42.97
78986;BME280;68384;55.750;48.746;2023-09-18T12:33:02;99378.97;;;18.92;43.61
78986;BME280;68384;55.750;48.746;2023-09-18T12:35:34;99378.97;;;18.96;44.02
78986;BME280;68384;55.750;48.746;2023-09-18T12:38:13;99365.00;;;18.91;43.55
78986;BME280;68384;55.750;48.746;2023-09-18T12:40:41;99375.38;;;19.03;43.85
78986;BME280;68384;55.750;48.746;2023-09-18T12:43:11;99371.94;;;18.98;43.74
78986;BME280;68384;55.750;48.746;2023-09-18T12:45:44;99358.03;;;18.87;43.87
78986;BME280;68384;55.750;48.746;2023-09-18T12:48:24;99356.22;;;18.94;43.38
78986;BME280;68384;55.750;48.746;2023-09-18T12:50:53;99343.19;;;18.83;42.97
78986;BME280;68384;55.750;48.746;2023-09-18T12:53:22;99340.56;;;18.82;43.47
78986;BME280;68384;55.750;48.746;2023-09-18T12:55:53;99347.53;;;18.89;43.27
78986;BME280;68384;55.750;48.746;2023-09-18T12:58:23;99342.50;;;18.62;43.68
78986;BME280;68384;55.750;48.746;2023-09-18T13:00:54;99342.53;;;18.57;44.09
78986;BME280;68384;55.750;48.746;2023-09-18T13:03:22;99336.53;;;18.41;44.58
78986;BME280;68384;55.750;48.746;2023-09-18T13:05:51;99351.47;;;18.29;44.84
78986;BME280;68384;55.750;48.746;2023-09-18T13:08:25;99330.63;;;18.03;45.81
78986;BME280;68384;55.750;48.746;2023-09-18T13:10:55;99331.56;;;17.96;45.69
78986;BME280;68384;55.750;48.746;2023-09-18T13:13:33;99355.09;;;18.02;46.46
78986;BME280;68384;55.750;48.746;2023-09-18T13:16:06;99346.41;;;17.91;46.23
78986;BME280;68384;55.750;48.746;2023-09-18T13:18:37;99356.06;;;17.90;46.69
78986;BME280;68384;55.750;48.746;2023-09-18T13:21:13;99330.81;;;17.71;46.72
78986;BME280;68384;55.750;48.746;2023-09-18T13:23:44;99326.47;;;17.60;47.05